Time;durP1;ratioP1;P1;durP2;ratioP2;P2;SDS_P1;SDS_P2;PMS_P1;PMS_P2;Temp;Humidity;BMP_temperature;BMP_pressure;BME280_temperature;BME280_humidity;BME280_pressure;Samples;Min_cycle;Max_cycle;Signal;HPM_P1;HPM_P2
2023/09/05 00:01:54;;;;;;;19.17;17.58;;;13.80;99.90;;;;;;6117195;23;20726;-87
2023/09/05 00:04:20;;;;;;;21.95;20.15;;;13.50;99.90;;;;;;6116308;23;20377;-88
2023/09/05 00:06:49;;;;;;;22.90;21.00;;;13.50;99.90;;;;;;6116098;23;20455;-88
2023/09/05 00:09:19;;;;;;;23.15;21.23;;;13.50;99.90;;;;;;6117137;23;20850;-87
2023/09/05 00:11:45;;;;;;;23.80;21.73;;;13.60;99.90;;;;;;6115251;23;20401;-88
2023/09/05 00:14:11;;;;;;;25.73;23.42;;;13.70;99.90;;;;;;6117283;23;20369;-88
2023/09/05 00:16:38;;;;;;;22.57;20.67;;;13.80;99.90;;;;;;6090398;23;20512;-87
2023/09/05 00:19:05;;;;;;;22.95;20.95;;;13.80;99.90;;;;;;6117327;23;20373;-88
2023/09/05 00:21:31;;;;;;;22.30;20.35;;;13.70;99.90;;;;;;6117321;23;20704;-88
2023/09/05 00:24:25;;;;;;;22.83;20.92;;;13.60;99.90;;;;;;6116098;23;20423;-88
2023/09/05 00:26:51;;;;;;;24.07;21.97;;;13.60;99.90;;;;;;6116927;23;20448;-88
2023/09/05 00:29:20;;;;;;;27.70;25.10;;;13.60;99.90;;;;;;6114919;23;20388;-87
2023/09/05 00:31:49;;;;;;;26.58;24.33;;;13.70;99.90;;;;;;6117137;23;20400;-88
2023/09/05 00:34:15;;;;;;;24.43;22.17;;;13.70;99.90;;;;;;6115055;23;20377;-87
2023/09/05 00:36:42;;;;;;;21.83;19.93;;;13.70;99.90;;;;;;6116673;23;20858;-88
2023/09/05 00:39:08;;;;;;;24.60;22.48;;;13.70;99.90;;;;;;6116751;23;20373;-87
2023/09/05 00:41:34;;;;;;;25.73;23.42;;;13.70;99.90;;;;;;6115380;23;20812;-88
2023/09/05 00:44:00;;;;;;;24.37;22.17;;;14.20;99.90;;;;;;6117082;23;20569;-87
2023/09/05 00:46:31;;;;;;;23.48;21.27;;;13.70;99.90;;;;;;6114892;23;20475;-89
2023/09/05 00:48:57;;;;;;;27.40;24.65;;;13.80;99.90;;;;;;6116974;23;20452;-88
2023/09/05 00:51:25;;;;;;;19.00;17.38;;;13.90;99.90;;;;;;6114811;23;20893;-88
2023/09/05 00:53:51;;;;;;;22.25;20.25;;;13.70;99.90;;;;;;6116881;23;20373;-88
2023/09/05 00:56:17;;;;;;;21.77;19.88;;;13.90;99.90;;;;;;6117295;23;20380;-88
2023/09/05 00:58:43;;;;;;;21.30;19.38;;;13.90;99.90;;;;;;6117618;23;20395;-87
2023/09/05 01:01:08;;;;;;;23.27;21.27;;;13.70;99.90;;;;;;6118928;23;20702;-88
2023/09/05 01:03:34;;;;;;;23.98;21.83;;;14.20;99.90;;;;;;6116574;23;20707;-88
2023/09/05 01:06:07;;;;;;;21.87;20.00;;;14.10;99.90;;;;;;6118942;23;20381;-87
2023/09/05 01:08:42;;;;;;;23.25;21.25;;;13.70;99.90;;;;;;6116548;23;20453;-88
2023/09/05 01:11:08;;;;;;;24.50;22.40;;;13.90;99.90;;;;;;6118642;23;20463;-88
2023/09/05 01:13:38;;;;;;;23.70;21.65;;;14.00;99.90;;;;;;6117534;23;20709;-87
2023/09/05 01:16:04;;;;;;;21.58;19.77;;;14.00;99.90;;;;;;6117775;23;20384;-88
2023/09/05 01:18:33;;;;;;;20.85;19.15;;;13.90;99.90;;;;;;6118533;23;20727;-87
2023/09/05 01:21:26;;;;;;;22.17;20.33;;;14.00;99.90;;;;;;6118289;23;20361;-87
2023/09/05 01:24:13;;;;;;;21.95;20.05;;;13.60;99.90;;;;;;6118450;23;20400;-88
2023/09/05 01:26:40;;;;;;;20.70;18.90;;;13.60;99.90;;;;;;6117385;23;20384;-87
2023/09/05 01:29:06;;;;;;;23.50;21.45;;;13.60;99.90;;;;;;6092966;23;20420;-88
2023/09/05 01:31:33;;;;;;;22.42;20.52;;;13.60;99.90;;;;;;6118562;23;20420;-87
2023/09/05 01:33:59;;;;;;;20.25;18.65;;;13.60;99.90;;;;;;6116412;23;20384;-87
2023/09/05 01:36:24;;;;;;;21.43;19.63;;;13.50;99.90;;;;;;6118195;23;20475;-87
2023/09/05 01:38:50;;;;;;;22.20;20.27;;;14.00;99.90;;;;;;6116307;23;20909;-87
2023/09/05 01:41:16;;;;;;;25.45;23.25;;;13.60;99.90;;;;;;6118298;23;20385;-86
2023/09/05 01:43:41;;;;;;;21.27;19.47;;;13.40;99.90;;;;;;6092526;23;20369;-87
2023/09/05 01:46:07;;;;;;;29.23;26.60;;;13.50;99.90;;;;;;6117863;23;20499;-87
2023/09/05 01:48:33;;;;;;;20.60;18.83;;;13.50;99.90;;;;;;6118045;23;20373;-87
2023/09/05 01:50:58;;;;;;;20.53;18.77;;;13.50;99.90;;;;;;6116342;23;20520;-87
2023/09/05 01:53:24;;;;;;;22.95;21.08;;;13.70;99.90;;;;;;6118292;23;20388;-88
2023/09/05 01:55:50;;;;;;;23.00;21.10;;;13.40;99.90;;;;;;6117896;23;20369;-88
2023/09/05 01:58:16;;;;;;;22.40;20.50;;;13.40;99.90;;;;;;6093913;23;20419;-88
2023/09/05 02:00:41;;;;;;;22.98;20.85;;;13.60;99.90;;;;;;6116116;23;20865;-87
2023/09/05 02:03:07;;;;;;;18.97;17.40;;;13.40;99.90;;;;;;6118268;23;20389;-87
2023/09/05 02:05:32;;;;;;;20.90;19.00;;;13.70;99.90;;;;;;6117078;23;20373;-87
2023/09/05 02:07:58;;;;;;;19.73;18.03;;;13.00;99.90;;;;;;6092964;23;20385;-87
2023/09/05 02:10:24;;;;;;;20.17;18.47;;;13.20;99.90;;;;;;6118039;23;20437;-88
2023/09/05 02:12:50;;;;;;;20.63;18.83;;;13.00;99.90;;;;;;6091397;23;20424;-87
2023/09/05 02:15:15;;;;;;;19.48;17.80;;;13.30;99.90;;;;;;6119972;23;20361;-88
2023/09/05 02:17:41;;;;;;;19.30;17.70;;;13.00;99.90;;;;;;6115973;23;20373;-87
2023/09/05 02:20:07;;;;;;;19.35;17.58;;;13.10;99.90;;;;;;6118321;23;20773;-87
2023/09/05 02:22:33;;;;;;;18.75;17.15;;;12.90;99.90;;;;;;6115942;23;21020;-86
2023/09/05 02:25:01;;;;;;;19.85;18.05;;;12.90;99.90;;;;;;6117614;23;20377;-87
2023/09/05 02:27:27;;;;;;;18.55;16.85;;;12.90;99.90;;;;;;6117670;23;20377;-87
2023/09/05 02:29:58;;;;;;;20.38;18.52;;;13.00;99.90;;;;;;6116262;23;20412;-87
2023/09/05 02:32:24;;;;;;;17.45;15.93;;;12.80;99.90;;;;;;6118016;23;20455;-87
2023/09/05 02:34:51;;;;;;;29.48;26.88;;;13.10;99.90;;;;;;6115924;23;20444;-86
2023/09/05 02:37:17;;;;;;;24.77;22.48;;;13.10;99.90;;;;;;6117855;23;20735;-88
2023/09/05 02:39:42;;;;;;;34.40;31.20;;;13.00;99.90;;;;;;6117231;23;20428;-87
2023/09/05 02:42:08;;;;;;;36.55;33.05;;;13.10;99.90;;;;;;6117707;23;20377;-87
2023/09/05 02:44:33;;;;;;;37.40;33.73;;;13.00;99.90;;;;;;6116629;23;20512;-87
2023/09/05 02:46:59;;;;;;;36.97;33.10;;;13.30;99.90;;;;;;6116617;23;20739;-88
2023/09/05 02:49:25;;;;;;;34.37;31.13;;;13.30;99.90;;;;;;6117646;23;20771;-88
2023/09/05 02:51:50;;;;;;;27.93;25.43;;;13.10;99.90;;;;;;6115415;23;20393;-87
2023/09/05 02:54:16;;;;;;;28.25;25.65;;;13.40;99.90;;;;;;6119217;23;20432;-88
2023/09/05 02:56:42;;;;;;;24.80;22.70;;;13.40;99.90;;;;;;6117313;23;20365;-87
2023/09/05 02:59:07;;;;;;;27.27;24.77;;;13.40;99.90;;;;;;6093301;23;20423;-87
2023/09/05 03:01:33;;;;;;;30.43;27.57;;;13.00;99.90;;;;;;6115941;23;20411;-88
2023/09/05 03:03:59;;;;;;;29.70;26.90;;;13.30;99.90;;;;;;6118724;23;20392;-88
2023/09/05 03:06:24;;;;;;;27.52;24.92;;;13.10;99.90;;;;;;6117298;23;20377;-88
2023/09/05 03:08:50;;;;;;;29.13;26.53;;;13.10;99.90;;;;;;6115711;23;20838;-87
2023/09/05 03:11:17;;;;;;;27.92;25.42;;;13.30;99.90;;;;;;6118087;23;20405;-88
2023/09/05 03:13:44;;;;;;;30.48;27.67;;;13.40;99.90;;;;;;6114747;23;20369;-87
2023/09/05 03:16:09;;;;;;;34.35;31.05;;;13.30;99.90;;;;;;6117656;23;20906;-88
2023/09/05 03:18:35;;;;;;;30.67;27.77;;;13.30;99.90;;;;;;6115536;23;20381;-87
2023/09/05 03:21:01;;;;;;;27.85;25.27;;;13.10;99.90;;;;;;6117348;23;20373;-87
2023/09/05 03:23:27;;;;;;;28.47;25.97;;;13.10;99.90;;;;;;6116222;23;20450;-88
2023/09/05 03:25:53;;;;;;;25.55;23.05;;;13.10;99.90;;;;;;6116318;23;20369;-88
2023/09/05 03:28:20;;;;;;;26.77;24.40;;;13.60;99.90;;;;;;6117358;23;20377;-87
2023/09/05 03:30:46;;;;;;;30.90;27.95;;;13.00;99.90;;;;;;6117037;23;20364;-87
2023/09/05 03:33:11;;;;;;;28.27;25.67;;;13.40;99.90;;;;;;6117180;23;20405;-88
2023/09/05 03:35:37;;;;;;;26.48;24.10;;;13.20;99.90;;;;;;6115485;23;20381;-87
2023/09/05 03:38:05;;;;;;;25.73;23.37;;;13.60;99.90;;;;;;6092954;23;20904;-87
2023/09/05 03:40:31;;;;;;;29.37;26.63;;;13.00;99.90;;;;;;6091389;23;20392;-88
2023/09/05 03:42:56;;;;;;;25.43;23.20;;;13.20;99.90;;;;;;6092416;23;20397;-88
2023/09/05 03:45:22;;;;;;;30.80;27.85;;;13.00;99.90;;;;;;6092657;23;20717;-87
2023/09/05 03:47:47;;;;;;;29.47;26.70;;;13.00;99.90;;;;;;6091042;23;20869;-88
2023/09/05 03:50:15;;;;;;;24.52;22.35;;;13.00;99.90;;;;;;6093504;23;21021;-87
2023/09/05 03:52:41;;;;;;;29.63;26.75;;;13.30;99.90;;;;;;6116277;23;20435;-86
2023/09/05 03:55:07;;;;;;;27.80;25.20;;;13.20;99.90;;;;;;6093078;23;20376;-87
2023/09/05 03:57:32;;;;;;;24.65;22.35;;;13.00;99.90;;;;;;6116760;23;20372;-87
2023/09/05 03:59:58;;;;;;;24.33;22.20;;;13.20;99.90;;;;;;6118796;23;20384;-88
2023/09/05 04:02:24;;;;;;;25.97;23.47;;;13.00;99.90;;;;;;6092045;23;20456;-87
2023/09/05 04:04:54;;;;;;;23.48;21.42;;;13.30;99.90;;;;;;6117774;23;20439;-87
2023/09/05 04:07:22;;;;;;;23.60;21.50;;;13.20;99.90;;;;;;6093023;23;20467;-87
2023/09/05 04:09:48;;;;;;;25.10;22.83;;;12.30;99.90;;;;;;6090693;23;20412;-87
2023/09/05 04:12:14;;;;;;;24.13;21.92;;;13.10;99.90;;;;;;6092777;23;20400;-87
2023/09/05 04:14:40;;;;;;;29.77;26.88;;;12.80;99.90;;;;;;6116706;23;20762;-88
2023/09/05 04:17:05;;;;;;;27.95;25.25;;;13.20;99.90;;;;;;6069158;23;20381;-87
2023/09/05 04:19:31;;;;;;;29.43;26.63;;;13.10;99.90;;;;;;6091372;23;20439;-88
2023/09/05 04:21:57;;;;;;;32.65;29.50;;;12.90;99.90;;;;;;6092231;23;20834;-88
2023/09/05 04:24:22;;;;;;;33.03;29.70;;;13.20;99.90;;;;;;6092260;23;20377;-87
2023/09/05 04:26:48;;;;;;;28.47;25.73;;;12.90;99.90;;;;;;6116805;23;20886;-88
2023/09/05 04:29:13;;;;;;;34.08;30.73;;;12.90;99.90;;;;;;6092668;23;20380;-88
2023/09/05 04:31:39;;;;;;;36.93;33.00;;;13.10;99.90;;;;;;6091996;23;20426;-87
2023/09/05 04:34:05;;;;;;;31.05;28.15;;;12.90;99.90;;;;;;6070798;23;20369;-88
2023/09/05 04:36:30;;;;;;;29.90;27.00;;;13.40;99.90;;;;;;6099994;23;20381;-86
2023/09/05 04:38:56;;;;;;;34.30;30.97;;;12.80;99.90;;;;;;6120294;23;20523;-87
2023/09/05 04:41:22;;;;;;;32.92;29.52;;;13.20;99.90;;;;;;6118179;23;20381;-88
2023/09/05 04:43:47;;;;;;;32.80;29.50;;;13.10;99.90;;;;;;6119290;23;20379;-88
2023/09/05 04:46:14;;;;;;;31.30;28.23;;;13.30;99.90;;;;;;6119137;23;20380;-88
2023/09/05 04:48:39;;;;;;;31.70;28.45;;;13.30;99.90;;;;;;6118524;23;20364;-88
2023/09/05 04:51:05;;;;;;;31.40;28.20;;;13.20;99.90;;;;;;6118860;23;20846;-88
2023/09/05 04:53:31;;;;;;;36.33;32.50;;;12.80;99.90;;;;;;6115280;23;20376;-88
2023/09/05 04:56:00;;;;;;;40.10;35.23;;;13.30;99.90;;;;;;6094855;23;20405;-89
2023/09/05 04:58:27;;;;;;;36.92;33.13;;;13.00;99.90;;;;;;6116653;23;20387;-89
2023/09/05 05:00:56;;;;;;;35.90;32.30;;;12.90;99.90;;;;;;6118437;23;20764;-90
2023/09/05 05:03:24;;;;;;;33.13;29.52;;;12.80;99.90;;;;;;6094710;23;20377;-89
2023/09/05 05:05:50;;;;;;;30.05;27.08;;;13.20;99.90;;;;;;6092570;23;20802;-91
2023/09/05 05:08:16;;;;;;;31.48;28.38;;;13.30;99.90;;;;;;6118712;23;20415;-90
2023/09/05 05:10:42;;;;;;;30.08;26.83;;;13.00;99.90;;;;;;6092546;23;20456;-89
2023/09/05 05:13:08;;;;;;;26.70;24.10;;;13.00;99.90;;;;;;6119714;23;20783;-90
2023/09/05 05:15:33;;;;;;;27.48;24.88;;;13.00;99.90;;;;;;6116347;23;20373;-89
2023/09/05 05:17:59;;;;;;;25.63;23.20;;;13.20;99.90;;;;;;6118609;23;20940;-90
2023/09/05 05:20:25;;;;;;;28.95;26.13;;;13.40;99.90;;;;;;6118080;23;20372;-92
2023/09/05 05:22:51;;;;;;;28.93;26.17;;;13.40;99.90;;;;;;6117437;23;20864;-90
2023/09/05 05:25:16;;;;;;;29.00;26.20;;;13.50;99.90;;;;;;6094706;23;20380;-89
2023/09/05 05:27:42;;;;;;;29.67;26.83;;;13.30;99.90;;;;;;6118863;23;20371;-90
2023/09/05 05:30:08;;;;;;;28.55;25.65;;;13.50;99.90;;;;;;6119158;23;20417;-90
2023/09/05 05:32:34;;;;;;;28.40;25.63;;;13.40;99.90;;;;;;6116901;23;20393;-90
2023/09/05 05:35:00;;;;;;;29.93;27.13;;;13.80;99.90;;;;;;6118814;23;20515;-89
2023/09/05 05:37:25;;;;;;;30.03;27.03;;;13.90;99.90;;;;;;6117266;23;20377;-89
2023/09/05 05:39:51;;;;;;;29.45;26.52;;;13.80;99.90;;;;;;6118241;23;20385;-91
2023/09/05 05:42:18;;;;;;;28.93;26.20;;;13.70;99.90;;;;;;6118386;23;20383;-89
2023/09/05 05:44:44;;;;;;;29.90;26.73;;;14.20;99.90;;;;;;6117173;23;20373;-90
2023/09/05 05:47:09;;;;;;;27.33;24.63;;;14.60;99.90;;;;;;6094635;23;20512;-90
2023/09/05 05:49:35;;;;;;;29.30;26.30;;;14.10;99.90;;;;;;6092889;23;20897;-90
2023/09/05 05:52:01;;;;;;;27.23;24.63;;;14.20;99.90;;;;;;6094588;23;20403;-90
2023/09/05 05:54:27;;;;;;;26.88;24.35;;;14.10;99.90;;;;;;6116768;23;20381;-89
2023/09/05 05:56:55;;;;;;;27.63;24.88;;;14.40;99.90;;;;;;6118836;23;20377;-90
2023/09/05 05:59:21;;;;;;;26.13;23.45;;;14.40;99.90;;;;;;6116804;23;20380;-89
2023/09/05 06:01:47;;;;;;;27.60;25.00;;;14.50;99.90;;;;;;6118859;23;20373;-89
2023/09/05 06:04:15;;;;;;;25.65;23.05;;;15.00;99.90;;;;;;6094546;23;20908;-88
2023/09/05 06:06:42;;;;;;;25.53;23.13;;;14.80;99.90;;;;;;6116477;23;20369;-91
2023/09/05 06:09:09;;;;;;;26.08;23.67;;;15.20;99.90;;;;;;6094496;23;20369;-90
2023/09/05 06:11:35;;;;;;;25.67;23.20;;;15.20;99.90;;;;;;6092075;23;20463;-89
2023/09/05 06:14:00;;;;;;;24.75;22.42;;;15.00;99.90;;;;;;6118385;23;20379;-90
2023/09/05 06:16:26;;;;;;;23.13;21.00;;;15.90;99.90;;;;;;6119168;23;20432;-91
2023/09/05 06:18:52;;;;;;;23.17;21.08;;;15.40;99.90;;;;;;6093881;23;20475;-91
2023/09/05 06:21:17;;;;;;;24.58;22.08;;;15.80;99.90;;;;;;6093660;23;20377;-89
2023/09/05 06:23:43;;;;;;;22.43;20.33;;;15.90;99.90;;;;;;6116253;23;20381;-90
2023/09/05 06:26:09;;;;;;;23.77;21.65;;;15.90;99.90;;;;;;6093774;23;20484;-90
2023/09/05 06:28:35;;;;;;;22.80;20.60;;;15.80;99.90;;;;;;6091576;23;20369;-89
2023/09/05 06:31:01;;;;;;;20.95;19.05;;;16.20;99.90;;;;;;6118988;23;20381;-90
2023/09/05 06:33:26;;;;;;;21.60;19.50;;;16.40;99.90;;;;;;6092666;23;20397;-90
2023/09/05 06:35:52;;;;;;;21.38;19.48;;;16.20;99.90;;;;;;6094186;23;20393;-91
2023/09/05 06:38:21;;;;;;;21.27;19.42;;;16.30;99.90;;;;;;6117802;23;20372;-88
2023/09/05 06:40:46;;;;;;;19.55;17.73;;;16.80;99.90;;;;;;6118602;23;20371;-90
2023/09/05 06:43:12;;;;;;;21.35;19.40;;;17.00;99.90;;;;;;6118261;23;20748;-90
2023/09/05 06:45:38;;;;;;;19.30;17.50;;;17.00;99.90;;;;;;6117633;23;20365;-89
2023/09/05 06:48:04;;;;;;;20.13;18.23;;;17.10;99.90;;;;;;6093862;23;20377;-90
2023/09/05 06:50:29;;;;;;;20.83;18.92;;;16.90;99.90;;;;;;6115983;23;20385;-89
2023/09/05 06:52:55;;;;;;;20.10;18.20;;;17.30;99.90;;;;;;6093465;23;20424;-90
2023/09/05 06:55:21;;;;;;;18.65;17.00;;;17.30;99.90;;;;;;6091869;23;20420;-89
2023/09/05 06:57:46;;;;;;;19.37;17.70;;;17.50;99.90;;;;;;6117332;23;20403;-90
2023/09/05 07:00:13;;;;;;;17.20;15.73;;;17.70;99.90;;;;;;6118083;23;20385;-89
2023/09/05 07:02:38;;;;;;;18.35;16.75;;;17.50;99.90;;;;;;6091614;23;20380;-89
2023/09/05 07:05:05;;;;;;;18.15;16.60;;;17.70;99.90;;;;;;6117863;23;20412;-90
2023/09/05 07:07:30;;;;;;;17.08;15.57;;;17.80;99.90;;;;;;6091295;23;20388;-90
2023/09/05 07:09:56;;;;;;;15.50;14.10;;;17.90;99.90;;;;;;6118353;23;20429;-90
2023/09/05 07:12:22;;;;;;;16.17;14.77;;;18.00;99.90;;;;;;6091566;23;20916;-89
2023/09/05 07:14:48;;;;;;;15.90;14.50;;;18.80;99.90;;;;;;6093561;23;20375;-90
2023/09/05 07:17:14;;;;;;;14.90;13.43;;;18.70;99.90;;;;;;6118564;23;20373;-90
2023/09/05 07:19:40;;;;;;;15.40;14.00;;;18.40;99.90;;;;;;6092121;23;20737;-89
2023/09/05 07:22:05;;;;;;;15.52;14.13;;;18.60;99.90;;;;;;6117807;23;20393;-89
2023/09/05 07:24:31;;;;;;;14.43;13.13;;;18.80;99.90;;;;;;6115423;23;20381;-90
2023/09/05 07:26:56;;;;;;;13.80;12.52;;;18.80;99.90;;;;;;6117715;23;20424;-90
2023/09/05 07:29:26;;;;;;;13.63;12.43;;;19.10;99.90;;;;;;6115463;23;20373;-90
2023/09/05 07:31:51;;;;;;;13.98;12.60;;;19.00;99.90;;;;;;6117518;23;20405;-88
2023/09/05 07:34:17;;;;;;;13.47;12.27;;;19.50;99.90;;;;;;6091708;23;20804;-89
2023/09/05 07:36:43;;;;;;;13.85;12.48;;;19.20;99.90;;;;;;6092325;23;20388;-91
2023/09/05 07:39:10;;;;;;;14.63;13.23;;;19.30;99.90;;;;;;6093085;23;20387;-89
2023/09/05 07:41:36;;;;;;;14.55;13.23;;;19.40;99.90;;;;;;6115490;23;20705;-89
2023/09/05 07:44:03;;;;;;;13.35;12.15;;;19.60;99.90;;;;;;6119570;23;20365;-90
2023/09/05 07:46:28;;;;;;;13.68;12.23;;;19.70;99.90;;;;;;6115248;23;20408;-90
2023/09/05 07:48:54;;;;;;;13.00;11.90;;;19.80;99.90;;;;;;6117363;23;20443;-90
2023/09/05 07:51:22;;;;;;;12.05;11.05;;;20.00;99.90;;;;;;6115289;23;20377;-89
2023/09/05 07:53:58;;;;;;;12.23;11.23;;;20.10;99.90;;;;;;6117069;23;20707;-90
2023/09/05 07:56:24;;;;;;;12.10;10.90;;;20.10;99.90;;;;;;6117201;23;20388;-89
2023/09/05 07:58:50;;;;;;;12.17;11.07;;;20.30;99.90;;;;;;6115602;23;20372;-90
2023/09/05 08:01:17;;;;;;;12.30;11.05;;;20.70;99.90;;;;;;6093027;23;20695;-90
2023/09/05 08:03:42;;;;;;;11.35;10.45;;;20.90;99.90;;;;;;6114628;23;20504;-89
2023/09/05 08:06:08;;;;;;;10.67;9.67;;;20.70;99.90;;;;;;6117217;23;20408;-89
2023/09/05 08:08:34;;;;;;;10.98;10.02;;;20.90;99.90;;;;;;6115093;23;20377;-88
2023/09/05 08:10:59;;;;;;;10.85;9.80;;;20.90;99.90;;;;;;6117000;23;20468;-89
2023/09/05 08:13:25;;;;;;;10.20;9.17;;;21.10;99.90;;;;;;6116136;23;20404;-90
2023/09/05 08:15:53;;;;;;;9.45;8.60;;;21.10;99.90;;;;;;6116059;23;20380;-91
2023/09/05 08:18:19;;;;;;;9.15;8.25;;;21.30;99.90;;;;;;6092591;23;20391;-89
2023/09/05 08:20:44;;;;;;;8.73;8.00;;;21.50;99.90;;;;;;6115160;23;20376;-90
2023/09/05 08:23:10;;;;;;;8.67;7.90;;;21.50;99.90;;;;;;6092707;23;20388;-89
2023/09/05 08:25:36;;;;;;;8.02;7.22;;;22.00;99.90;;;;;;6114920;23;20516;-89
2023/09/05 08:28:02;;;;;;;7.90;7.28;;;21.70;99.90;;;;;;6117126;23;20369;-90
2023/09/05 08:30:28;;;;;;;8.18;7.40;;;21.90;99.90;;;;;;6115356;23;20407;-89
2023/09/05 08:33:01;;;;;;;8.30;7.50;;;22.30;99.90;;;;;;6116302;23;20405;-89
2023/09/05 08:35:27;;;;;;;7.45;6.75;;;22.30;99.90;;;;;;6116913;23;20389;-89
2023/09/05 08:37:53;;;;;;;6.85;6.25;;;22.20;99.90;;;;;;6114925;23;20385;-90
2023/09/05 08:40:19;;;;;;;7.43;6.65;;;22.60;99.90;;;;;;6117015;23;20879;-89
2023/09/05 08:42:49;;;;;;;8.70;6.65;;;22.40;99.90;;;;;;6114886;23;21324;-90
2023/09/05 08:45:19;;;;;;;6.87;6.27;;;22.80;99.90;;;;;;6116923;23;20420;-90
2023/09/05 08:47:47;;;;;;;6.95;6.28;;;22.60;99.90;;;;;;6118882;23;20404;-95
2023/09/05 08:50:13;;;;;;;6.25;5.45;;;22.60;99.90;;;;;;6094206;23;20714;-93
2023/09/05 08:52:42;;;;;;;6.17;5.67;;;23.00;99.90;;;;;;6093998;23;20441;-92
2023/09/05 08:55:09;;;;;;;5.68;5.10;;;22.90;99.90;;;;;;6116039;23;20373;-90
2023/09/05 08:57:38;;;;;;;5.53;4.70;;;23.00;99.90;;;;;;6118599;23;21044;-94
2023/09/05 09:00:06;;;;;;;6.37;4.63;;;23.10;99.90;;;;;;6092004;23;21008;-91
2023/09/05 09:02:33;;;;;;;4.20;3.80;;;23.20;99.90;;;;;;6118198;23;20384;-93
2023/09/05 09:04:58;;;;;;;4.87;4.10;;;23.70;99.90;;;;;;6089943;23;20382;-94
2023/09/05 09:07:27;;;;;;;4.10;3.65;;;23.40;99.90;;;;;;6094477;23;20881;-91
2023/09/05 09:10:20;;;;;;;5.07;4.30;;;23.50;99.90;;;;;;6117683;23;20392;-93
2023/09/05 09:12:51;;;;;;;6.38;3.70;;;23.60;99.90;;;;;;6116278;23;20433;-92
2023/09/05 09:15:16;;;;;;;4.60;4.10;;;23.80;99.90;;;;;;6118898;23;20392;-95
2023/09/05 09:17:45;;;;;;;4.10;3.70;;;24.20;99.90;;;;;;6093620;23;20377;-92
2023/09/05 09:20:14;;;;;;;4.22;3.70;;;24.00;99.90;;;;;;6095545;23;20734;-93
2023/09/05 09:22:41;;;;;;;3.97;3.33;;;24.10;99.90;;;;;;6095313;23;20757;-94
2023/09/05 09:25:14;;;;;;;5.43;3.90;;;24.20;99.90;;;;;;6096601;23;20420;-92
2023/09/05 09:27:42;;;;;;;6.07;4.70;;;24.30;99.90;;;;;;6120891;23;20384;-93
2023/09/05 09:30:11;;;;;;;4.82;4.43;;;24.00;99.90;;;;;;6094322;23;20397;-96
2023/09/05 09:32:38;;;;;;;4.87;3.97;;;24.60;99.90;;;;;;6097709;23;20459;-95
2023/09/05 09:35:10;;;;;;;6.55;4.90;;;24.60;99.90;;;;;;6096644;23;20385;-92
2023/09/05 09:37:35;;;;;;;5.00;4.38;;;24.70;99.90;;;;;;6101675;23;20520;-94
2023/09/05 09:40:04;;;;;;;4.28;3.88;;;24.90;99.90;;;;;;6093960;23;20373;-93
2023/09/05 09:42:30;;;;;;;4.93;3.90;;;25.00;99.90;;;;;;6119253;23;20696;-93
2023/09/05 09:44:56;;;;;;;4.60;3.40;;;25.10;99.90;;;;;;6096034;23;20385;-94
2023/09/05 09:47:26;;;;;;;5.38;3.47;;;25.30;99.90;;;;;;6093616;23;23085;-93
2023/09/05 09:49:52;;;;;;;3.92;3.10;;;25.40;99.90;;;;;;6096246;23;20452;-92
2023/09/05 09:52:22;;;;;;;4.17;3.03;;;25.50;99.90;;;;;;6092934;23;20471;-92
2023/09/05 09:54:51;;;;;;;3.53;3.00;;;25.70;99.90;;;;;;6121076;23;20372;-92
2023/09/05 09:57:30;;;;;;;4.72;3.53;;;25.90;99.90;;;;;;6092905;23;20407;-93
2023/09/05 10:00:00;;;;;;;4.03;2.83;;;26.20;97.20;;;;;;6119029;23;20400;-91
2023/09/05 10:02:30;;;;;;;3.75;3.15;;;26.50;99.90;;;;;;6096617;23;20388;-94
2023/09/05 10:04:57;;;;;;;3.38;2.60;;;26.80;96.80;;;;;;6093319;23;20387;-93
2023/09/05 10:07:29;;;;;;;3.42;2.88;;;27.20;94.30;;;;;;6101016;23;20459;-95
2023/09/05 10:09:59;;;;;;;3.63;2.40;;;27.80;95.90;;;;;;6100147;23;20449;-92
2023/09/05 10:12:25;;;;;;;5.85;2.20;;;28.30;86.90;;;;;;6097077;23;20396;-93
2023/09/05 10:14:54;;;;;;;4.13;2.15;;;28.90;79.30;;;;;;6096487;23;20372;-93
2023/09/05 10:17:21;;;;;;;2.58;1.95;;;29.40;75.70;;;;;;6096631;23;20388;-92
2023/09/05 10:19:51;;;;;;;3.63;1.63;;;29.90;68.90;;;;;;6095011;23;20377;-94
2023/09/05 10:22:18;;;;;;;2.30;1.58;;;30.30;61.80;;;;;;6095115;23;20432;-94
2023/09/05 10:24:47;;;;;;;3.10;1.75;;;30.70;58.70;;;;;;6097448;23;20373;-95
2023/09/05 10:27:12;;;;;;;2.40;1.40;;;31.10;58.60;;;;;;6093841;23;20377;-93
2023/09/05 10:29:43;;;;;;;3.53;1.38;;;31.30;61.70;;;;;;6095361;23;20809;-92
2023/09/05 10:32:13;;;;;;;3.35;1.40;;;31.60;55.50;;;;;;6092138;23;20869;-91
2023/09/05 10:34:47;;;;;;;3.30;1.58;;;32.00;57.80;;;;;;6096773;23;20873;-93
2023/09/05 10:37:21;;;;;;;2.90;1.30;;;32.30;53.20;;;;;;6093973;23;20392;-93
2023/09/05 10:39:49;;;;;;;1.50;1.20;;;32.40;50.90;;;;;;6093799;23;20838;-94
2023/09/05 10:42:16;;;;;;;3.22;1.40;;;32.70;54.20;;;;;;6097048;23;20455;-94
2023/09/05 10:44:47;;;;;;;2.45;1.10;;;33.00;48.70;;;;;;6119600;23;20437;-93
2023/09/05 10:47:33;;;;;;;2.22;1.30;;;33.20;47.00;;;;;;6095432;23;20429;-93
2023/09/05 10:50:02;;;;;;;2.00;1.30;;;33.30;48.40;;;;;;6118762;23;20868;-94
2023/09/05 10:52:29;;;;;;;2.05;1.17;;;33.50;47.30;;;;;;6094738;23;20401;-93
2023/09/05 10:54:55;;;;;;;2.27;1.00;;;33.60;46.50;;;;;;6118909;23;20893;-93
2023/09/05 10:57:42;;;;;;;4.45;1.00;;;33.60;46.70;;;;;;6116816;23;20841;-93
2023/09/05 11:00:17;;;;;;;2.38;1.00;;;33.70;47.20;;;;;;6095225;23;20377;-94
2023/09/05 11:02:45;;;;;;;2.72;0.88;;;34.00;47.70;;;;;;6116092;23;20431;-94
2023/09/05 11:05:12;;;;;;;2.08;1.00;;;34.20;44.10;;;;;;6096177;23;20381;-94
2023/09/05 11:07:42;;;;;;;2.63;1.02;;;34.40;46.60;;;;;;6093888;23;20372;-93
2023/09/05 11:10:28;;;;;;;2.10;1.00;;;34.60;47.20;;;;;;6091930;23;20377;-94
2023/09/05 11:13:06;;;;;;;4.18;1.17;;;34.90;46.90;;;;;;6093867;23;20522;-95
2023/09/05 11:15:35;;;;;;;1.60;0.70;;;35.20;47.10;;;;;;6095347;23;20387;-95
2023/09/05 11:18:04;;;;;;;2.65;1.05;;;35.30;41.00;;;;;;6095172;23;20423;-94
2023/09/05 11:20:39;;;;;;;1.63;0.70;;;35.40;43.00;;;;;;6094411;23;20694;-95
2023/09/05 11:23:15;;;;;;;1.73;0.73;;;35.40;42.00;;;;;;6095311;23;20524;-95
2023/09/05 11:25:53;;;;;;;1.63;0.90;;;35.40;46.10;;;;;;6094883;23;20392;-95
2023/09/05 11:28:24;;;;;;;1.65;0.88;;;35.50;43.00;;;;;;6092990;23;20456;-94
2023/09/05 11:30:57;;;;;;;2.00;0.70;;;35.70;43.50;;;;;;6095061;23;20419;-95
2023/09/05 11:33:27;;;;;;;1.40;0.70;;;35.80;39.20;;;;;;6093535;23;20403;-92
2023/09/05 11:35:53;;;;;;;2.05;0.50;;;35.80;41.10;;;;;;6119287;23;21078;-94
2023/09/05 11:38:21;;;;;;;2.20;0.60;;;35.60;39.70;;;;;;6095944;23;20376;-96
2023/09/05 11:40:54;;;;;;;2.00;0.80;;;35.70;42.50;;;;;;6094266;23;20417;-94
2023/09/05 11:43:22;;;;;;;1.90;0.60;;;35.80;38.80;;;;;;6095824;23;20715;-95
2023/09/05 11:45:51;;;;;;;1.90;0.52;;;35.80;42.10;;;;;;6093363;23;20381;-94
2023/09/05 11:48:19;;;;;;;3.37;0.63;;;35.80;40.30;;;;;;6094695;23;20369;-94
2023/09/05 11:50:45;;;;;;;1.83;0.60;;;35.80;38.50;;;;;;6093316;23;20377;-90
2023/09/05 11:53:14;;;;;;;1.83;0.65;;;35.70;41.20;;;;;;6119946;23;20479;-94
2023/09/05 11:55:43;;;;;;;2.45;0.60;;;35.80;41.10;;;;;;6122844;23;20372;-90
2023/09/05 11:58:11;;;;;;;2.05;0.70;;;35.90;40.80;;;;;;6093774;23;20907;-94
2023/09/05 12:00:44;;;;;;;2.50;0.60;;;36.00;40.50;;;;;;6093757;23;20373;-93
2023/09/05 12:03:15;;;;;;;2.17;0.60;;;36.10;38.40;;;;;;6092198;23;20829;-94
2023/09/05 12:05:42;;;;;;;2.13;0.60;;;36.20;39.90;;;;;;6097165;23;20364;-93
2023/09/05 12:08:08;;;;;;;4.63;0.70;;;36.20;36.50;;;;;;6092994;23;20912;-95
2023/09/05 12:10:55;;;;;;;1.33;0.63;;;36.30;39.60;;;;;;6119896;23;20372;-94
2023/09/05 12:13:45;;;;;;;1.88;0.52;;;36.40;37.90;;;;;;6098174;23;20401;-93
2023/09/05 12:16:16;;;;;;;1.55;0.60;;;36.50;38.10;;;;;;6092470;23;20377;-93
2023/09/05 12:18:42;;;;;;;1.35;0.40;;;36.50;38.30;;;;;;6118846;23;20369;-90
2023/09/05 12:21:08;;;;;;;2.00;0.50;;;36.40;38.80;;;;;;6091956;23;20797;-92
2023/09/05 12:23:34;;;;;;;2.00;0.50;;;36.50;38.30;;;;;;6094039;23;20380;-90
2023/09/05 12:26:00;;;;;;;1.83;0.50;;;36.60;37.50;;;;;;6093256;23;20376;-91
2023/09/05 12:28:27;;;;;;;1.05;0.50;;;36.60;38.90;;;;;;6093603;23;20479;-91
2023/09/05 12:31:15;;;;;;;2.08;0.55;;;36.80;41.20;;;;;;6095168;23;20705;-91
2023/09/05 12:33:41;;;;;;;2.10;0.50;;;37.20;38.70;;;;;;6092584;23;20380;-92
2023/09/05 12:36:07;;;;;;;2.10;0.50;;;37.50;38.20;;;;;;6118547;23;20749;-92